Vineland, Colorado
Current Conditions -  °F | °C
As of 6:53 AM on Thursday 30 Oct 2014 (Local Time) from KPUB Reporting Station
Clear Clear  
Wind Chill: 28°   Ceiling: Unl
Heat Index: 34°   Visibility: 10mi
Dew Point: 22°   Wind: 7mph
Humidity: 61%   Direction: 250°WSW
Pressure: 30.33"   Gusts: NA
Location:  38.2482°N, 104.47°W
Report Text: KPUB 301253Z 25006KT 10SM CLR 01/M06 A3033 RMK AO2 SLP259 T00111056
Loading
Personal Weather Stations






























Interactive Weather Map
Tropical Storm Tracking
New forecast layout! Learn more

10-Day Weather Forecast

Advertisements
Track Severe Weather on mobile